sensor_id;sensor_type;location;lat;lon;timestamp;pressure;altitude;pressure_sealevel;temperature;humidity
64668;BME280;51077;42.716;23.344;2023-04-09T00:01:06;95574.03;;;9.92;58.72
64668;BME280;51077;42.716;23.344;2023-04-09T00:03:32;95570.06;;;9.93;58.87
64668;BME280;51077;42.716;23.344;2023-04-09T00:05:58;95573.78;;;9.96;58.73
64668;BME280;51077;42.716;23.344;2023-04-09T00:08:24;95575.25;;;9.97;58.75
64668;BME280;51077;42.716;23.344;2023-04-09T00:10:50;95570.56;;;9.97;58.75
64668;BME280;51077;42.716;23.344;2023-04-09T00:13:16;95573.53;;;9.99;58.69
64668;BME280;51077;42.716;23.344;2023-04-09T00:15:42;95578.78;;;9.97;58.78
64668;BME280;51077;42.716;23.344;2023-04-09T00:18:08;95576.03;;;9.97;58.86
64668;BME280;51077;42.716;23.344;2023-04-09T00:20:33;95574.53;;;9.96;58.79
64668;BME280;51077;42.716;23.344;2023-04-09T00:22:59;95573.53;;;9.94;58.94
64668;BME280;51077;42.716;23.344;2023-04-09T00:25:24;95585.00;;;9.92;59.04
64668;BME280;51077;42.716;23.344;2023-04-09T00:27:49;95584.75;;;9.90;59.24
64668;BME280;51077;42.716;23.344;2023-04-09T00:30:15;95584.50;;;9.88;59.22
64668;BME280;51077;42.716;23.344;2023-04-09T00:32:41;95583.75;;;9.88;59.37
64668;BME280;51077;42.716;23.344;2023-04-09T00:35:07;95587.00;;;9.86;59.35
64668;BME280;51077;42.716;23.344;2023-04-09T00:37:33;95584.03;;;9.84;59.69
64668;BME280;51077;42.716;23.344;2023-04-09T00:39:58;95584.03;;;9.84;59.39
64668;BME280;51077;42.716;23.344;2023-04-09T00:42:24;95587.25;;;9.82;59.58
64668;BME280;51077;42.716;23.344;2023-04-09T00:44:50;95582.50;;;9.83;59.43
64668;BME280;51077;42.716;23.344;2023-04-09T00:47:16;95579.75;;;9.83;59.49
64668;BME280;51077;42.716;23.344;2023-04-09T00:49:42;95574.78;;;9.81;59.54
64668;BME280;51077;42.716;23.344;2023-04-09T00:52:08;95577.03;;;9.83;59.44
64668;BME280;51077;42.716;23.344;2023-04-09T00:54:34;95573.81;;;9.85;59.46
64668;BME280;51077;42.716;23.344;2023-04-09T00:57:00;95563.56;;;9.85;59.38
64668;BME280;51077;42.716;23.344;2023-04-09T00:59:25;95562.84;;;9.85;59.44
64668;BME280;51077;42.716;23.344;2023-04-09T01:01:51;95565.56;;;9.85;59.33
64668;BME280;51077;42.716;23.344;2023-04-09T01:04:16;95574.78;;;9.87;59.39
64668;BME280;51077;42.716;23.344;2023-04-09T01:06:58;95578.25;;;9.88;59.31
64668;BME280;51077;42.716;23.344;2023-04-09T01:09:32;95576.53;;;9.85;59.25
64668;BME280;51077;42.716;23.344;2023-04-09T01:12:11;95574.53;;;9.85;59.17
64668;BME280;51077;42.716;23.344;2023-04-09T01:14:55;95574.03;;;9.87;59.11
64668;BME280;51077;42.716;23.344;2023-04-09T01:17:27;95585.00;;;9.87;59.15
64668;BME280;51077;42.716;23.344;2023-04-09T01:20:07;95576.03;;;9.86;59.12
64668;BME280;51077;42.716;23.344;2023-04-09T01:28:30;95580.78;;;9.86;58.80
64668;BME280;51077;42.716;23.344;2023-04-09T01:30:59;95579.75;;;9.83;58.79
64668;BME280;51077;42.716;23.344;2023-04-09T01:33:28;95579.28;;;9.85;58.83
64668;BME280;51077;42.716;23.344;2023-04-09T01:35:55;95584.03;;;9.84;58.73
64668;BME280;51077;42.716;23.344;2023-04-09T01:38:21;95589.00;;;9.80;58.77
64668;BME280;51077;42.716;23.344;2023-04-09T01:40:48;95587.00;;;9.80;58.64
64668;BME280;51077;42.716;23.344;2023-04-09T01:43:14;95585.00;;;9.81;58.67
64668;BME280;51077;42.716;23.344;2023-04-09T01:45:40;95580.78;;;9.80;58.65
64668;BME280;51077;42.716;23.344;2023-04-09T01:48:07;95589.75;;;9.80;58.60
64668;BME280;51077;42.716;23.344;2023-04-09T01:50:32;95593.97;;;9.81;58.53
64668;BME280;51077;42.716;23.344;2023-04-09T01:52:59;95590.72;;;9.83;58.45
64668;BME280;51077;42.716;23.344;2023-04-09T01:55:25;95588.72;;;9.83;58.47
64668;BME280;51077;42.716;23.344;2023-04-09T01:57:50;95589.97;;;9.82;58.31
64668;BME280;51077;42.716;23.344;2023-04-09T02:00:16;95582.50;;;9.83;58.40
64668;BME280;51077;42.716;23.344;2023-04-09T02:02:58;95591.25;;;9.81;58.59
64668;BME280;51077;42.716;23.344;2023-04-09T02:05:28;95589.00;;;9.80;58.39
64668;BME280;51077;42.716;23.344;2023-04-09T02:07:57;95584.25;;;9.80;58.48
64668;BME280;51077;42.716;23.344;2023-04-09T02:10:26;95584.75;;;9.79;58.51
64668;BME280;51077;42.716;23.344;2023-04-09T02:12:53;95584.00;;;9.78;58.50
64668;BME280;51077;42.716;23.344;2023-04-09T02:15:20;95588.50;;;9.76;58.47
64668;BME280;51077;42.716;23.344;2023-04-09T02:17:46;95576.53;;;9.73;58.34
64668;BME280;51077;42.716;23.344;2023-04-09T02:20:18;95588.00;;;9.72;58.47
64668;BME280;51077;42.716;23.344;2023-04-09T02:22:47;95583.00;;;9.70;58.56
64668;BME280;51077;42.716;23.344;2023-04-09T02:25:12;95582.03;;;9.68;58.54
64668;BME280;51077;42.716;23.344;2023-04-09T02:27:38;95584.50;;;9.66;58.44
64668;BME280;51077;42.716;23.344;2023-04-09T02:30:04;95566.06;;;9.61;58.68
64668;BME280;51077;42.716;23.344;2023-04-09T02:32:30;95575.53;;;9.60;58.70
64668;BME280;51077;42.716;23.344;2023-04-09T02:34:55;95582.25;;;9.59;58.69
64668;BME280;51077;42.716;23.344;2023-04-09T02:37:20;95587.47;;;9.56;58.75
64668;BME280;51077;42.716;23.344;2023-04-09T02:39:46;95591.97;;;9.54;58.91
64668;BME280;51077;42.716;23.344;2023-04-09T02:42:11;95581.25;;;9.50;59.03
64668;BME280;51077;42.716;23.344;2023-04-09T02:44:36;95589.22;;;9.48;58.98
64668;BME280;51077;42.716;23.344;2023-04-09T02:47:02;95578.75;;;9.47;58.97
64668;BME280;51077;42.716;23.344;2023-04-09T02:49:27;95584.75;;;9.45;59.12
64668;BME280;51077;42.716;23.344;2023-04-09T02:51:53;95587.50;;;9.45;59.06
64668;BME280;51077;42.716;23.344;2023-04-09T02:54:18;95582.47;;;9.44;59.10
64668;BME280;51077;42.716;23.344;2023-04-09T02:56:43;95581.00;;;9.43;59.06
64668;BME280;51077;42.716;23.344;2023-04-09T02:59:09;95581.50;;;9.41;58.99
64668;BME280;51077;42.716;23.344;2023-04-09T03:01:35;95578.03;;;9.41;59.00
64668;BME280;51077;42.716;23.344;2023-04-09T03:04:00;95579.25;;;9.40;58.90
64668;BME280;51077;42.716;23.344;2023-04-09T03:06:26;95573.75;;;9.40;58.98
64668;BME280;51077;42.716;23.344;2023-04-09T03:08:51;95574.28;;;9.38;59.02
64668;BME280;51077;42.716;23.344;2023-04-09T03:11:17;95576.78;;;9.36;58.95
64668;BME280;51077;42.716;23.344;2023-04-09T03:13:42;95576.50;;;9.34;59.19
64668;BME280;51077;42.716;23.344;2023-04-09T03:16:07;95571.25;;;9.30;59.10
64668;BME280;51077;42.716;23.344;2023-04-09T03:18:35;95573.25;;;9.30;59.05
64668;BME280;51077;42.716;23.344;2023-04-09T03:21:04;95574.50;;;9.29;59.11
64668;BME280;51077;42.716;23.344;2023-04-09T03:23:30;95566.78;;;9.27;59.11
64668;BME280;51077;42.716;23.344;2023-04-09T03:26:00;95576.22;;;9.26;59.21
64668;BME280;51077;42.716;23.344;2023-04-09T03:28:25;95571.25;;;9.25;59.28
64668;BME280;51077;42.716;23.344;2023-04-09T03:30:51;95574.97;;;9.22;59.31
64668;BME280;51077;42.716;23.344;2023-04-09T03:33:16;95576.22;;;9.21;59.16
64668;BME280;51077;42.716;23.344;2023-04-09T03:35:41;95571.72;;;9.18;59.26
64668;BME280;51077;42.716;23.344;2023-04-09T03:38:07;95577.72;;;9.16;59.35
64668;BME280;51077;42.716;23.344;2023-04-09T03:40:35;95578.22;;;9.15;59.44
64668;BME280;51077;42.716;23.344;2023-04-09T03:43:01;95576.47;;;9.12;59.57
64668;BME280;51077;42.716;23.344;2023-04-09T03:45:28;95585.19;;;9.10;59.46
64668;BME280;51077;42.716;23.344;2023-04-09T03:47:53;95580.94;;;9.09;59.54
64668;BME280;51077;42.716;23.344;2023-04-09T03:50:18;95574.47;;;9.06;59.51
64668;BME280;51077;42.716;23.344;2023-04-09T03:52:44;95578.44;;;9.05;59.55
64668;BME280;51077;42.716;23.344;2023-04-09T03:55:09;95585.66;;;9.03;59.52
64668;BME280;51077;42.716;23.344;2023-04-09T03:57:35;95585.38;;;9.01;59.85
64668;BME280;51077;42.716;23.344;2023-04-09T04:00:00;95594.09;;;8.99;59.68
64668;BME280;51077;42.716;23.344;2023-04-09T04:02:26;95590.63;;;8.99;59.73
64668;BME280;51077;42.716;23.344;2023-04-09T04:04:54;95595.34;;;8.98;59.90
64668;BME280;51077;42.716;23.344;2023-04-09T04:07:19;95593.84;;;8.97;59.82
64668;BME280;51077;42.716;23.344;2023-04-09T04:09:45;95600.53;;;8.96;59.83
64668;BME280;51077;42.716;23.344;2023-04-09T04:12:10;95599.56;;;8.99;60.24
64668;BME280;51077;42.716;23.344;2023-04-09T04:14:35;95597.56;;;9.00;60.58
64668;BME280;51077;42.716;23.344;2023-04-09T04:17:01;95600.31;;;9.00;60.83
64668;BME280;51077;42.716;23.344;2023-04-09T04:19:26;95610.53;;;8.99;60.79
64668;BME280;51077;42.716;23.344;2023-04-09T04:21:51;95596.84;;;8.99;60.50
64668;BME280;51077;42.716;23.344;2023-04-09T04:24:17;95603.06;;;9.00;60.75
64668;BME280;51077;42.716;23.344;2023-04-09T04:26:42;95599.56;;;8.99;60.51
64668;BME280;51077;42.716;23.344;2023-04-09T04:29:07;95598.59;;;9.02;60.63
64668;BME280;51077;42.716;23.344;2023-04-09T04:31:33;95594.59;;;9.03;60.51
64668;BME280;51077;42.716;23.344;2023-04-09T04:33:58;95599.34;;;9.03;60.29
64668;BME280;51077;42.716;23.344;2023-04-09T04:36:24;95600.81;;;9.04;60.62
64668;BME280;51077;42.716;23.344;2023-04-09T04:38:50;95597.63;;;9.05;60.29
64668;BME280;51077;42.716;23.344;2023-04-09T04:41:15;95598.59;;;9.08;60.31
64668;BME280;51077;42.716;23.344;2023-04-09T04:43:41;95603.56;;;9.10;60.24
64668;BME280;51077;42.716;23.344;2023-04-09T04:46:06;95609.31;;;9.12;60.29
64668;BME280;51077;42.716;23.344;2023-04-09T04:48:31;95606.06;;;9.13;60.28
64668;BME280;51077;42.716;23.344;2023-04-09T04:50:58;95605.84;;;9.17;59.96
64668;BME280;51077;42.716;23.344;2023-04-09T04:53:24;95607.59;;;9.20;59.94
64668;BME280;51077;42.716;23.344;2023-04-09T04:55:49;95605.09;;;9.22;60.03
64668;BME280;51077;42.716;23.344;2023-04-09T04:58:15;95607.09;;;9.27;59.91
64668;BME280;51077;42.716;23.344;2023-04-09T05:00:41;95606.88;;;9.30;59.83
64668;BME280;51077;42.716;23.344;2023-04-09T05:03:06;95616.84;;;9.34;59.78
64668;BME280;51077;42.716;23.344;2023-04-09T05:05:32;95610.63;;;9.39;59.85
64668;BME280;51077;42.716;23.344;2023-04-09T05:07:58;95606.41;;;9.43;59.80
64668;BME280;51077;42.716;23.344;2023-04-09T05:10:24;95611.41;;;9.50;59.57
64668;BME280;51077;42.716;23.344;2023-04-09T05:12:50;95609.91;;;9.61;59.72
64668;BME280;51077;42.716;23.344;2023-04-09T05:15:15;95608.91;;;9.75;59.56
64668;BME280;51077;42.716;23.344;2023-04-09T05:17:42;95617.16;;;9.92;59.06
64668;BME280;51077;42.716;23.344;2023-04-09T05:20:07;95612.91;;;10.07;58.69
64668;BME280;51077;42.716;23.344;2023-04-09T05:22:33;95615.16;;;10.20;58.44
64668;BME280;51077;42.716;23.344;2023-04-09T05:24:58;95612.66;;;10.34;58.46
64668;BME280;51077;42.716;23.344;2023-04-09T05:27:24;95615.41;;;10.45;57.90
64668;BME280;51077;42.716;23.344;2023-04-09T05:29:50;95627.09;;;10.51;57.80
64668;BME280;51077;42.716;23.344;2023-04-09T05:32:15;95618.34;;;10.52;57.35
64668;BME280;51077;42.716;23.344;2023-04-09T05:34:41;95612.88;;;10.58;57.38
64668;BME280;51077;42.716;23.344;2023-04-09T05:37:06;95612.09;;;10.57;57.07
64668;BME280;51077;42.716;23.344;2023-04-09T05:39:32;95623.84;;;10.58;57.52
64668;BME280;51077;42.716;23.344;2023-04-09T05:41:57;95610.88;;;10.59;57.36
64668;BME280;51077;42.716;23.344;2023-04-09T05:44:22;95613.63;;;10.59;57.37
64668;BME280;51077;42.716;23.344;2023-04-09T05:46:48;95613.63;;;10.59;57.45
64668;BME280;51077;42.716;23.344;2023-04-09T05:49:13;95620.81;;;10.62;57.23
64668;BME280;51077;42.716;23.344;2023-04-09T05:51:38;95614.34;;;10.65;57.10
64668;BME280;51077;42.716;23.344;2023-04-09T05:54:04;95618.31;;;10.69;57.05
64668;BME280;51077;42.716;23.344;2023-04-09T05:56:29;95618.53;;;10.77;57.04
64668;BME280;51077;42.716;23.344;2023-04-09T05:58:55;95624.00;;;10.82;56.98
64668;BME280;51077;42.716;23.344;2023-04-09T06:01:20;95618.50;;;10.88;56.76
64668;BME280;51077;42.716;23.344;2023-04-09T06:03:46;95622.47;;;10.98;56.37
64668;BME280;51077;42.716;23.344;2023-04-09T06:06:12;95618.94;;;11.03;56.17
64668;BME280;51077;42.716;23.344;2023-04-09T06:08:37;95620.91;;;11.08;56.01
64668;BME280;51077;42.716;23.344;2023-04-09T06:11:03;95620.13;;;11.14;55.65
64668;BME280;51077;42.716;23.344;2023-04-09T06:13:28;95624.09;;;11.18;55.67
64668;BME280;51077;42.716;23.344;2023-04-09T06:15:54;95618.59;;;11.24;55.43
64668;BME280;51077;42.716;23.344;2023-04-09T06:18:19;95623.31;;;11.29;55.31
64668;BME280;51077;42.716;23.344;2023-04-09T06:20:44;95620.00;;;11.36;55.01
64668;BME280;51077;42.716;23.344;2023-04-09T06:23:10;95626.25;;;11.42;54.77
64668;BME280;51077;42.716;23.344;2023-04-09T06:25:35;95631.94;;;11.50;54.41
64668;BME280;51077;42.716;23.344;2023-04-09T06:28:01;95626.09;;;11.65;54.24
64668;BME280;51077;42.716;23.344;2023-04-09T06:30:27;95625.50;;;11.77;54.27
64668;BME280;51077;42.716;23.344;2023-04-09T06:32:55;95626.72;;;11.88;53.48
64668;BME280;51077;42.716;23.344;2023-04-09T06:35:21;95626.13;;;12.00;53.32
64668;BME280;51077;42.716;23.344;2023-04-09T06:37:46;95622.03;;;12.13;53.13
64668;BME280;51077;42.716;23.344;2023-04-09T06:40:13;95638.44;;;12.24;52.76
64668;BME280;51077;42.716;23.344;2023-04-09T06:42:38;95634.31;;;12.36;52.67
64668;BME280;51077;42.716;23.344;2023-04-09T06:45:04;95629.25;;;12.46;52.38
64668;BME280;51077;42.716;23.344;2023-04-09T06:47:33;95640.41;;;12.53;52.19
64668;BME280;51077;42.716;23.344;2023-04-09T06:50:03;95646.09;;;12.61;52.00
64668;BME280;51077;42.716;23.344;2023-04-09T06:52:29;95643.06;;;12.65;51.47
64668;BME280;51077;42.716;23.344;2023-04-09T06:54:54;95640.03;;;12.68;51.38
64668;BME280;51077;42.716;23.344;2023-04-09T06:57:20;95643.72;;;12.71;51.49
64668;BME280;51077;42.716;23.344;2023-04-09T06:59:45;95644.19;;;12.75;50.98
64668;BME280;51077;42.716;23.344;2023-04-09T07:02:10;95648.47;;;12.76;50.99
64668;BME280;51077;42.716;23.344;2023-04-09T07:04:36;95640.66;;;12.80;50.79
64668;BME280;51077;42.716;23.344;2023-04-09T07:07:01;95632.81;;;12.84;50.69
64668;BME280;51077;42.716;23.344;2023-04-09T07:09:26;95631.72;;;12.93;50.46
64668;BME280;51077;42.716;23.344;2023-04-09T07:11:52;95641.88;;;13.03;50.42
64668;BME280;51077;42.716;23.344;2023-04-09T07:14:21;95648.47;;;13.19;50.06
64668;BME280;51077;42.716;23.344;2023-04-09T07:16:46;95637.78;;;13.35;49.54
64668;BME280;51077;42.716;23.344;2023-04-09T07:19:12;95634.44;;;13.42;49.00
64668;BME280;51077;42.716;23.344;2023-04-09T07:21:37;95633.81;;;13.49;48.93
64668;BME280;51077;42.716;23.344;2023-04-09T07:24:03;95636.50;;;13.54;48.69
64668;BME280;51077;42.716;23.344;2023-04-09T07:26:29;95641.19;;;13.60;48.76
64668;BME280;51077;42.716;23.344;2023-04-09T07:28:54;95648.44;;;13.63;48.59
64668;BME280;51077;42.716;23.344;2023-04-09T07:31:20;95654.16;;;13.65;48.20
64668;BME280;51077;42.716;23.344;2023-04-09T07:33:45;95655.94;;;13.62;48.13
64668;BME280;51077;42.716;23.344;2023-04-09T07:36:11;95646.41;;;13.63;47.94
64668;BME280;51077;42.716;23.344;2023-04-09T07:38:36;95645.88;;;13.65;47.73
64668;BME280;51077;42.716;23.344;2023-04-09T07:41:01;95642.00;;;13.73;47.13
64668;BME280;51077;42.716;23.344;2023-04-09T07:43:27;95647.06;;;13.69;46.61
64668;BME280;51077;42.716;23.344;2023-04-09T07:45:52;95645.28;;;13.72;46.50
64668;BME280;51077;42.716;23.344;2023-04-09T07:48:18;95646.03;;;13.72;46.66
64668;BME280;51077;42.716;23.344;2023-04-09T07:50:43;95649.00;;;13.74;45.77
64668;BME280;51077;42.716;23.344;2023-04-09T07:53:12;95662.16;;;13.68;45.81
64668;BME280;51077;42.716;23.344;2023-04-09T07:55:39;95662.44;;;13.65;45.53
64668;BME280;51077;42.716;23.344;2023-04-09T07:58:04;95660.34;;;13.71;45.35
64668;BME280;51077;42.716;23.344;2023-04-09T08:00:36;95658.84;;;13.70;44.97
64668;BME280;51077;42.716;23.344;2023-04-09T08:03:01;95659.88;;;13.67;45.22
64668;BME280;51077;42.716;23.344;2023-04-09T08:05:28;95673.91;;;13.69;45.04
64668;BME280;51077;42.716;23.344;2023-04-09T08:07:55;95669.97;;;13.64;44.98
64668;BME280;51077;42.716;23.344;2023-04-09T08:10:23;95685.50;;;13.67;45.16
64668;BME280;51077;42.716;23.344;2023-04-09T08:12:48;95684.28;;;13.63;45.11
64668;BME280;51077;42.716;23.344;2023-04-09T08:15:14;95676.53;;;13.61;45.09
64668;BME280;51077;42.716;23.344;2023-04-09T08:17:40;95663.25;;;13.60;45.24
64668;BME280;51077;42.716;23.344;2023-04-09T08:20:06;95669.44;;;13.66;45.10
64668;BME280;51077;42.716;23.344;2023-04-09T08:22:32;95674.13;;;13.71;45.06
64668;BME280;51077;42.716;23.344;2023-04-09T08:25:01;95661.53;;;13.75;45.08
64668;BME280;51077;42.716;23.344;2023-04-09T08:27:26;95690.31;;;13.80;44.93
64668;BME280;51077;42.716;23.344;2023-04-09T08:29:51;95667.72;;;13.81;44.87
64668;BME280;51077;42.716;23.344;2023-04-09T08:32:17;95672.56;;;13.94;44.63
64668;BME280;51077;42.716;23.344;2023-04-09T08:34:45;95670.81;;;14.10;44.42
64668;BME280;51077;42.716;23.344;2023-04-09T08:37:10;95680.94;;;14.21;44.08
64668;BME280;51077;42.716;23.344;2023-04-09T08:39:38;95677.47;;;14.33;44.01
64668;BME280;51077;42.716;23.344;2023-04-09T08:42:05;95689.84;;;14.46;43.64
64668;BME280;51077;42.716;23.344;2023-04-09T08:44:31;95678.09;;;14.58;43.44
64668;BME280;51077;42.716;23.344;2023-04-09T08:46:58;95668.53;;;14.73;43.04
64668;BME280;51077;42.716;23.344;2023-04-09T08:49:24;95669.72;;;14.91;42.76
64668;BME280;51077;42.716;23.344;2023-04-09T08:51:49;95665.38;;;15.08;42.48
64668;BME280;51077;42.716;23.344;2023-04-09T08:54:16;95660.13;;;15.31;41.99
64668;BME280;51077;42.716;23.344;2023-04-09T08:56:47;95675.41;;;15.59;41.67
64668;BME280;51077;42.716;23.344;2023-04-09T08:59:15;95680.41;;;15.74;41.24
64668;BME280;51077;42.716;23.344;2023-04-09T09:01:43;95651.00;;;15.84;41.09
64668;BME280;51077;42.716;23.344;2023-04-09T09:04:10;95650.94;;;15.97;40.89
64668;BME280;51077;42.716;23.344;2023-04-09T09:06:38;95653.25;;;16.06;40.65
64668;BME280;51077;42.716;23.344;2023-04-09T09:09:08;95648.53;;;16.15;40.27
64668;BME280;51077;42.716;23.344;2023-04-09T09:11:39;95653.66;;;16.11;40.22
64668;BME280;51077;42.716;23.344;2023-04-09T09:14:05;95644.59;;;16.10;40.70
64668;BME280;51077;42.716;23.344;2023-04-09T09:16:35;95649.28;;;16.15;40.47
64668;BME280;51077;42.716;23.344;2023-04-09T09:19:04;95642.88;;;16.20;40.36
64668;BME280;51077;42.716;23.344;2023-04-09T09:21:30;95648.13;;;16.31;39.99
64668;BME280;51077;42.716;23.344;2023-04-09T09:23:56;95650.06;;;16.44;39.94
64668;BME280;51077;42.716;23.344;2023-04-09T09:26:27;95651.94;;;16.70;39.68
64668;BME280;51077;42.716;23.344;2023-04-09T09:28:53;95635.28;;;16.91;39.04
64668;BME280;51077;42.716;23.344;2023-04-09T09:31:21;95648.25;;;16.96;39.01
64668;BME280;51077;42.716;23.344;2023-04-09T09:33:47;95638.13;;;17.06;38.97
64668;BME280;51077;42.716;23.344;2023-04-09T09:36:14;95634.72;;;17.21;38.69
64668;BME280;51077;42.716;23.344;2023-04-09T09:38:54;95630.69;;;17.30;38.69
64668;BME280;51077;42.716;23.344;2023-04-09T09:41:20;95631.66;;;17.40;38.29
64668;BME280;51077;42.716;23.344;2023-04-09T09:43:46;95614.09;;;17.38;38.36
64668;BME280;51077;42.716;23.344;2023-04-09T09:46:12;95628.50;;;17.36;38.56
64668;BME280;51077;42.716;23.344;2023-04-09T09:48:38;95621.06;;;17.31;38.40
64668;BME280;51077;42.716;23.344;2023-04-09T09:51:08;95623.84;;;17.31;38.62
64668;BME280;51077;42.716;23.344;2023-04-09T09:53:35;95619.97;;;17.34;38.69
64668;BME280;51077;42.716;23.344;2023-04-09T09:56:03;95624.22;;;17.35;38.63
64668;BME280;51077;42.716;23.344;2023-04-09T09:59:00;95618.69;;;17.35;38.71
64668;BME280;51077;42.716;23.344;2023-04-09T10:01:28;95605.75;;;17.38;38.41
64668;BME280;51077;42.716;23.344;2023-04-09T10:03:55;95603.00;;;17.45;38.51
64668;BME280;51077;42.716;23.344;2023-04-09T10:06:22;95598.22;;;17.53;38.53
64668;BME280;51077;42.716;23.344;2023-04-09T10:08:48;95596.41;;;17.64;38.13
64668;BME280;51077;42.716;23.344;2023-04-09T10:11:17;95583.81;;;17.70;38.25
64668;BME280;51077;42.716;23.344;2023-04-09T10:13:55;95601.66;;;17.90;37.82
64668;BME280;51077;42.716;23.344;2023-04-09T10:16:23;95586.69;;;18.08;37.69
64668;BME280;51077;42.716;23.344;2023-04-09T10:18:49;95590.38;;;18.19;37.38
64668;BME280;51077;42.716;23.344;2023-04-09T10:23:55;95582.81;;;18.27;37.32
64668;BME280;51077;42.716;23.344;2023-04-09T10:26:24;95582.06;;;18.34;36.94
64668;BME280;51077;42.716;23.344;2023-04-09T10:29:08;95590.56;;;18.36;36.95
64668;BME280;51077;42.716;23.344;2023-04-09T10:34:15;95582.81;;;18.42;36.75
64668;BME280;51077;42.716;23.344;2023-04-09T10:36:45;95580.94;;;18.45;36.92
64668;BME280;51077;42.716;23.344;2023-04-09T10:39:13;95581.31;;;18.41;36.64
64668;BME280;51077;42.716;23.344;2023-04-09T10:41:40;95580.94;;;18.37;37.25
64668;BME280;51077;42.716;23.344;2023-04-09T10:44:26;95573.94;;;18.28;36.87
64668;BME280;51077;42.716;23.344;2023-04-09T10:46:53;95568.16;;;18.19;36.71
64668;BME280;51077;42.716;23.344;2023-04-09T10:49:38;95569.66;;;18.12;36.95
64668;BME280;51077;42.716;23.344;2023-04-09T10:57:16;95553.50;;;18.41;36.54
64668;BME280;51077;42.716;23.344;2023-04-09T10:59:50;95546.47;;;18.55;36.32
64668;BME280;51077;42.716;23.344;2023-04-09T11:05:35;95544.97;;;18.77;35.77
64668;BME280;51077;42.716;23.344;2023-04-09T11:08:10;95537.72;;;18.82;35.86
64668;BME280;51077;42.716;23.344;2023-04-09T11:10:37;95539.94;;;18.83;35.86
64668;BME280;51077;42.716;23.344;2023-04-09T11:13:02;95533.25;;;18.87;35.74
64668;BME280;51077;42.716;23.344;2023-04-09T11:15:30;95528.78;;;18.91;35.56
64668;BME280;51077;42.716;23.344;2023-04-09T11:17:55;95527.69;;;18.87;35.04
64668;BME280;51077;42.716;23.344;2023-04-09T11:20:23;95529.19;;;18.80;35.39
64668;BME280;51077;42.716;23.344;2023-04-09T11:22:53;95526.03;;;18.83;35.11
64668;BME280;51077;42.716;23.344;2023-04-09T11:25:23;95528.59;;;18.97;34.90
64668;BME280;51077;42.716;23.344;2023-04-09T11:27:49;95529.66;;;19.09;34.56
64668;BME280;51077;42.716;23.344;2023-04-09T11:30:15;95529.31;;;18.97;34.14
64668;BME280;51077;42.716;23.344;2023-04-09T11:32:41;95529.94;;;18.80;34.53
64668;BME280;51077;42.716;23.344;2023-04-09T11:35:13;95533.09;;;18.62;34.66
64668;BME280;51077;42.716;23.344;2023-04-09T11:37:40;95527.97;;;18.43;34.25
64668;BME280;51077;42.716;23.344;2023-04-09T11:40:06;95515.38;;;18.19;34.58
64668;BME280;51077;42.716;23.344;2023-04-09T11:42:33;95515.19;;;18.01;34.60
64668;BME280;51077;42.716;23.344;2023-04-09T11:44:59;95508.00;;;17.83;34.97
64668;BME280;51077;42.716;23.344;2023-04-09T11:47:25;95519.06;;;17.68;35.13
64668;BME280;51077;42.716;23.344;2023-04-09T11:49:51;95523.28;;;17.53;35.65
64668;BME280;51077;42.716;23.344;2023-04-09T11:52:19;95517.16;;;17.40;35.54
64668;BME280;51077;42.716;23.344;2023-04-09T11:54:48;95512.69;;;17.29;35.75
64668;BME280;51077;42.716;23.344;2023-04-09T11:57:14;95513.41;;;17.22;35.86
64668;BME280;51077;42.716;23.344;2023-04-09T11:59:39;95498.97;;;17.16;35.63
64668;BME280;51077;42.716;23.344;2023-04-09T12:02:06;95511.72;;;17.11;35.76
64668;BME280;51077;42.716;23.344;2023-04-09T12:04:32;95513.00;;;17.02;35.23
64668;BME280;51077;42.716;23.344;2023-04-09T12:06:58;95519.03;;;16.93;34.77
64668;BME280;51077;42.716;23.344;2023-04-09T12:09:23;95511.22;;;16.84;34.79
64668;BME280;51077;42.716;23.344;2023-04-09T12:11:49;95502.91;;;16.76;34.52
64668;BME280;51077;42.716;23.344;2023-04-09T12:14:16;95504.31;;;16.70;34.39
64668;BME280;51077;42.716;23.344;2023-04-09T12:16:43;95502.44;;;16.65;34.55
64668;BME280;51077;42.716;23.344;2023-04-09T12:19:11;95492.81;;;16.66;34.26
64668;BME280;51077;42.716;23.344;2023-04-09T12:21:53;95505.00;;;16.63;33.97
64668;BME280;51077;42.716;23.344;2023-04-09T12:24:23;95481.56;;;16.64;34.14
64668;BME280;51077;42.716;23.344;2023-04-09T12:26:50;95498.94;;;16.64;33.89
64668;BME280;51077;42.716;23.344;2023-04-09T12:29:19;95486.72;;;16.59;33.40
64668;BME280;51077;42.716;23.344;2023-04-09T12:31:48;95490.00;;;16.58;33.68
64668;BME280;51077;42.716;23.344;2023-04-09T12:34:13;95494.63;;;16.55;33.34
64668;BME280;51077;42.716;23.344;2023-04-09T12:36:39;95468.97;;;16.55;33.60
64668;BME280;51077;42.716;23.344;2023-04-09T12:39:08;95491.50;;;16.59;33.45
64668;BME280;51077;42.716;23.344;2023-04-09T12:41:33;95481.34;;;16.62;33.57
64668;BME280;51077;42.716;23.344;2023-04-09T12:43:59;95483.22;;;16.67;33.62
64668;BME280;51077;42.716;23.344;2023-04-09T12:46:25;95481.41;;;16.69;33.54
64668;BME280;51077;42.716;23.344;2023-04-09T12:48:51;95486.38;;;16.71;33.60
64668;BME280;51077;42.716;23.344;2023-04-09T12:51:17;95484.16;;;16.69;34.03
64668;BME280;51077;42.716;23.344;2023-04-09T12:53:47;95474.91;;;16.67;33.88
64668;BME280;51077;42.716;23.344;2023-04-09T12:56:12;95481.34;;;16.62;33.80
64668;BME280;51077;42.716;23.344;2023-04-09T12:58:40;95482.25;;;16.56;33.88
64668;BME280;51077;42.716;23.344;2023-04-09T13:01:05;95482.41;;;16.51;33.96
64668;BME280;51077;42.716;23.344;2023-04-09T13:03:33;95479.78;;;16.45;34.06
64668;BME280;51077;42.716;23.344;2023-04-09T13:05:59;95475.50;;;16.37;34.26
64668;BME280;51077;42.716;23.344;2023-04-09T13:08:24;95474.16;;;16.30;34.37
64668;BME280;51077;42.716;23.344;2023-04-09T13:10:50;95468.41;;;16.20;34.55
64668;BME280;51077;42.716;23.344;2023-04-09T13:13:15;95469.81;;;16.14;34.77